La Harpe, Kansas
Current Conditions -  °F | °C
As of 1:17 PM on Sunday 21 Dec 2014 (Local Time) from KCNU Reporting Station
Haze Haze  
Wind Chill: 37°   Ceiling: 900
Heat Index: 44°   Visibility: 4mi
Dew Point: 42°   Wind: 15mph
Humidity: 93%   Direction: 180°S
Pressure: 29.89"   Gusts: NA
Location:  37.92°N, 95.3°W
Report Text: KCNU 211917Z AUTO 18013KT 4SM BR OVC009 07/06 A2989 RMK AO2 CIG 007V011 T00670056
Loading
Personal Weather Stations






























Interactive Weather Map New forecast layout! Learn more

10-Day Weather Forecast

Advertisements
Track Severe Weather on mobile